sensor_id;sensor_type;location;lat;lon;timestamp;P1;P2;P0
80555;PMS5003;69889;55.040;73.076;2024-02-21T00:00:19;28.50;22.50;12.50
80555;PMS5003;69889;55.040;73.076;2024-02-21T00:02:46;33.50;26.50;15.50
80555;PMS5003;69889;55.040;73.076;2024-02-21T00:05:12;28.75;22.25;12.50
80555;PMS5003;69889;55.040;73.076;2024-02-21T00:07:39;30.00;24.50;15.00
80555;PMS5003;69889;55.040;73.076;2024-02-21T00:10:05;29.00;22.75;13.00
80555;PMS5003;69889;55.040;73.076;2024-02-21T00:12:32;28.00;22.00;12.50
80555;PMS5003;69889;55.040;73.076;2024-02-21T00:14:59;36.00;27.00;14.50
80555;PMS5003;69889;55.040;73.076;2024-02-21T00:17:27;32.50;24.75;13.50
80555;PMS5003;69889;55.040;73.076;2024-02-21T00:19:53;34.00;26.50;13.50
80555;PMS5003;69889;55.040;73.076;2024-02-21T00:22:20;34.50;26.50;15.25
80555;PMS5003;69889;55.040;73.076;2024-02-21T00:24:46;28.25;22.75;15.00
80555;PMS5003;69889;55.040;73.076;2024-02-21T00:27:13;36.50;28.25;16.00
80555;PMS5003;69889;55.040;73.076;2024-02-21T00:29:39;38.25;28.25;15.00
80555;PMS5003;69889;55.040;73.076;2024-02-21T00:32:05;41.50;32.50;15.50
80555;PMS5003;69889;55.040;73.076;2024-02-21T00:34:32;33.50;26.25;14.50
80555;PMS5003;69889;55.040;73.076;2024-02-21T00:36:58;40.75;30.00;17.25
80555;PMS5003;69889;55.040;73.076;2024-02-21T00:39:25;38.00;29.50;17.00
80555;PMS5003;69889;55.040;73.076;2024-02-21T00:41:51;36.50;28.50;15.50
80555;PMS5003;69889;55.040;73.076;2024-02-21T00:44:17;42.50;31.50;17.00
80555;PMS5003;69889;55.040;73.076;2024-02-21T00:46:44;43.50;32.00;18.25
80555;PMS5003;69889;55.040;73.076;2024-02-21T00:49:11;33.00;25.50;15.50
80555;PMS5003;69889;55.040;73.076;2024-02-21T00:51:42;34.75;26.75;15.25
80555;PMS5003;69889;55.040;73.076;2024-02-21T00:54:08;36.50;27.75;15.00
80555;PMS5003;69889;55.040;73.076;2024-02-21T00:56:35;36.25;28.75;16.75
80555;PMS5003;69889;55.040;73.076;2024-02-21T00:59:01;34.00;26.50;15.50
80555;PMS5003;69889;55.040;73.076;2024-02-21T01:01:28;40.00;31.25;17.75
80555;PMS5003;69889;55.040;73.076;2024-02-21T01:03:54;34.50;27.75;16.50
80555;PMS5003;69889;55.040;73.076;2024-02-21T01:06:21;39.75;31.50;17.50
80555;PMS5003;69889;55.040;73.076;2024-02-21T01:08:47;41.75;32.00;17.50
80555;PMS5003;69889;55.040;73.076;2024-02-21T01:11:14;41.00;30.50;17.50
80555;PMS5003;69889;55.040;73.076;2024-02-21T01:13:40;40.00;31.50;18.50
80555;PMS5003;69889;55.040;73.076;2024-02-21T01:16:07;40.25;30.50;17.75
80555;PMS5003;69889;55.040;73.076;2024-02-21T01:18:34;33.00;27.25;15.50
80555;PMS5003;69889;55.040;73.076;2024-02-21T01:21:00;37.00;28.00;14.75
80555;PMS5003;69889;55.040;73.076;2024-02-21T01:23:27;38.50;29.50;16.75
80555;PMS5003;69889;55.040;73.076;2024-02-21T01:25:53;34.75;27.25;16.50
80555;PMS5003;69889;55.040;73.076;2024-02-21T01:28:21;33.00;26.00;14.25
80555;PMS5003;69889;55.040;73.076;2024-02-21T01:30:48;38.50;31.00;17.50
80555;PMS5003;69889;55.040;73.076;2024-02-21T01:33:14;35.75;28.25;17.00
80555;PMS5003;69889;55.040;73.076;2024-02-21T01:35:41;41.75;32.50;18.75
80555;PMS5003;69889;55.040;73.076;2024-02-21T01:38:12;36.00;28.00;12.75
80555;PMS5003;69889;55.040;73.076;2024-02-21T01:40:47;28.75;24.25;12.25
80555;PMS5003;69889;55.040;73.076;2024-02-21T01:43:18;36.50;28.50;14.75
80555;PMS5003;69889;55.040;73.076;2024-02-21T01:45:49;36.50;28.50;15.00
80555;PMS5003;69889;55.040;73.076;2024-02-21T01:48:18;30.75;25.00;13.00
80555;PMS5003;69889;55.040;73.076;2024-02-21T01:50:54;38.00;29.00;16.50
80555;PMS5003;69889;55.040;73.076;2024-02-21T01:53:21;40.25;29.50;16.50
80555;PMS5003;69889;55.040;73.076;2024-02-21T01:55:48;28.00;23.00;13.75
80555;PMS5003;69889;55.040;73.076;2024-02-21T01:58:15;35.00;27.00;15.50
80555;PMS5003;69889;55.040;73.076;2024-02-21T02:00:42;33.00;26.50;14.75
80555;PMS5003;69889;55.040;73.076;2024-02-21T02:03:13;30.25;25.25;14.25
80555;PMS5003;69889;55.040;73.076;2024-02-21T02:05:43;42.50;31.50;17.75
80555;PMS5003;69889;55.040;73.076;2024-02-21T02:08:10;39.50;29.75;17.00
80555;PMS5003;69889;55.040;73.076;2024-02-21T02:10:37;40.25;30.50;16.50
80555;PMS5003;69889;55.040;73.076;2024-02-21T02:13:04;36.50;28.50;16.00
80555;PMS5003;69889;55.040;73.076;2024-02-21T02:18:06;39.25;30.00;16.25
80555;PMS5003;69889;55.040;73.076;2024-02-21T02:20:32;30.50;24.00;12.50
80555;PMS5003;69889;55.040;73.076;2024-02-21T02:22:59;38.00;26.50;14.25
80555;PMS5003;69889;55.040;73.076;2024-02-21T02:25:26;41.50;30.50;17.75
80555;PMS5003;69889;55.040;73.076;2024-02-21T02:27:53;38.00;30.00;17.75
80555;PMS5003;69889;55.040;73.076;2024-02-21T02:30:20;31.75;25.00;14.50
80555;PMS5003;69889;55.040;73.076;2024-02-21T02:32:46;35.25;27.50;16.25
80555;PMS5003;69889;55.040;73.076;2024-02-21T02:35:13;35.00;27.25;15.50
80555;PMS5003;69889;55.040;73.076;2024-02-21T02:37:39;31.50;25.50;13.25
80555;PMS5003;69889;55.040;73.076;2024-02-21T02:40:06;31.25;25.25;15.00
80555;PMS5003;69889;55.040;73.076;2024-02-21T02:42:33;38.00;29.25;17.00
80555;PMS5003;69889;55.040;73.076;2024-02-21T02:45:00;36.50;29.50;16.75
80555;PMS5003;69889;55.040;73.076;2024-02-21T02:47:26;34.50;27.50;16.50
80555;PMS5003;69889;55.040;73.076;2024-02-21T02:49:53;36.50;29.00;16.50
80555;PMS5003;69889;55.040;73.076;2024-02-21T02:52:19;32.50;25.50;13.50
80555;PMS5003;69889;55.040;73.076;2024-02-21T02:54:45;34.25;26.50;14.50
80555;PMS5003;69889;55.040;73.076;2024-02-21T02:57:18;29.75;25.50;14.50
80555;PMS5003;69889;55.040;73.076;2024-02-21T02:59:50;30.75;25.25;16.00
80555;PMS5003;69889;55.040;73.076;2024-02-21T03:02:17;30.25;23.00;12.50
80555;PMS5003;69889;55.040;73.076;2024-02-21T03:04:43;31.00;25.50;13.75
80555;PMS5003;69889;55.040;73.076;2024-02-21T03:07:10;30.50;24.00;15.25
80555;PMS5003;69889;55.040;73.076;2024-02-21T03:09:40;31.25;23.75;15.25
80555;PMS5003;69889;55.040;73.076;2024-02-21T03:12:08;39.25;31.25;16.75
80555;PMS5003;69889;55.040;73.076;2024-02-21T03:14:35;21.50;18.25;12.25
80555;PMS5003;69889;55.040;73.076;2024-02-21T03:17:02;29.50;24.25;13.00
80555;PMS5003;69889;55.040;73.076;2024-02-21T03:19:28;33.50;25.75;13.50
80555;PMS5003;69889;55.040;73.076;2024-02-21T03:21:55;36.50;28.00;17.50
80555;PMS5003;69889;55.040;73.076;2024-02-21T03:24:21;39.00;28.00;16.00
80555;PMS5003;69889;55.040;73.076;2024-02-21T03:26:48;31.00;23.25;12.75
80555;PMS5003;69889;55.040;73.076;2024-02-21T03:29:17;31.50;25.25;12.25
80555;PMS5003;69889;55.040;73.076;2024-02-21T03:31:44;30.75;24.50;14.50
80555;PMS5003;69889;55.040;73.076;2024-02-21T03:34:10;34.50;28.50;16.25
80555;PMS5003;69889;55.040;73.076;2024-02-21T03:36:37;28.25;23.25;13.50
80555;PMS5003;69889;55.040;73.076;2024-02-21T03:39:04;35.50;28.50;15.25
80555;PMS5003;69889;55.040;73.076;2024-02-21T03:41:32;30.50;24.50;12.50
80555;PMS5003;69889;55.040;73.076;2024-02-21T03:44:00;36.00;24.00;14.50
80555;PMS5003;69889;55.040;73.076;2024-02-21T03:46:28;31.50;26.75;15.50
80555;PMS5003;69889;55.040;73.076;2024-02-21T03:48:55;34.00;26.50;15.25
80555;PMS5003;69889;55.040;73.076;2024-02-21T03:51:21;32.00;24.50;13.75
80555;PMS5003;69889;55.040;73.076;2024-02-21T03:53:48;35.25;27.50;14.50
80555;PMS5003;69889;55.040;73.076;2024-02-21T03:56:14;35.50;25.50;13.50
80555;PMS5003;69889;55.040;73.076;2024-02-21T03:58:41;38.75;28.50;17.25
80555;PMS5003;69889;55.040;73.076;2024-02-21T04:01:07;31.50;26.00;15.50
80555;PMS5003;69889;55.040;73.076;2024-02-21T04:03:34;38.25;28.25;16.50
80555;PMS5003;69889;55.040;73.076;2024-02-21T04:06:00;40.75;32.00;18.25
80555;PMS5003;69889;55.040;73.076;2024-02-21T04:08:27;39.50;31.25;18.50
80555;PMS5003;69889;55.040;73.076;2024-02-21T04:10:53;49.00;34.50;20.50
80555;PMS5003;69889;55.040;73.076;2024-02-21T04:13:20;35.00;28.00;16.75
80555;PMS5003;69889;55.040;73.076;2024-02-21T04:15:46;42.50;34.25;19.75
80555;PMS5003;69889;55.040;73.076;2024-02-21T04:18:13;46.00;36.00;20.50
80555;PMS5003;69889;55.040;73.076;2024-02-21T04:20:40;36.25;30.00;17.50
80555;PMS5003;69889;55.040;73.076;2024-02-21T04:23:07;44.50;34.50;20.50
80555;PMS5003;69889;55.040;73.076;2024-02-21T04:25:33;44.50;34.50;19.50
80555;PMS5003;69889;55.040;73.076;2024-02-21T04:28:00;47.25;34.50;20.00
80555;PMS5003;69889;55.040;73.076;2024-02-21T04:30:27;47.25;35.50;20.25
80555;PMS5003;69889;55.040;73.076;2024-02-21T04:32:54;48.25;36.50;22.00
80555;PMS5003;69889;55.040;73.076;2024-02-21T04:35:21;42.50;33.00;19.50
80555;PMS5003;69889;55.040;73.076;2024-02-21T04:37:47;44.75;34.50;21.00
80555;PMS5003;69889;55.040;73.076;2024-02-21T04:40:14;46.00;35.50;21.50
80555;PMS5003;69889;55.040;73.076;2024-02-21T04:42:43;49.25;38.50;22.50
80555;PMS5003;69889;55.040;73.076;2024-02-21T04:45:12;35.00;27.25;15.50
80555;PMS5003;69889;55.040;73.076;2024-02-21T04:47:42;47.75;36.00;21.50
80555;PMS5003;69889;55.040;73.076;2024-02-21T04:50:08;43.75;34.25;20.25
80555;PMS5003;69889;55.040;73.076;2024-02-21T04:52:35;46.50;36.50;20.50
80555;PMS5003;69889;55.040;73.076;2024-02-21T04:55:01;41.50;31.75;20.50
80555;PMS5003;69889;55.040;73.076;2024-02-21T04:57:28;42.50;32.50;18.50
80555;PMS5003;69889;55.040;73.076;2024-02-21T04:59:54;43.75;34.50;19.75
80555;PMS5003;69889;55.040;73.076;2024-02-21T05:02:21;41.75;31.25;18.75
80555;PMS5003;69889;55.040;73.076;2024-02-21T05:04:50;42.75;32.25;18.50
80555;PMS5003;69889;55.040;73.076;2024-02-21T05:07:16;42.50;31.50;18.50
80555;PMS5003;69889;55.040;73.076;2024-02-21T05:09:43;42.25;35.00;20.50
80555;PMS5003;69889;55.040;73.076;2024-02-21T05:12:31;33.50;27.50;16.75
80555;PMS5003;69889;55.040;73.076;2024-02-21T05:14:58;37.00;28.50;16.75
80555;PMS5003;69889;55.040;73.076;2024-02-21T05:17:24;40.75;31.50;19.25
80555;PMS5003;69889;55.040;73.076;2024-02-21T05:19:51;45.25;33.75;20.50
80555;PMS5003;69889;55.040;73.076;2024-02-21T05:22:17;43.50;33.00;18.50
80555;PMS5003;69889;55.040;73.076;2024-02-21T05:24:44;42.50;33.50;20.50
80555;PMS5003;69889;55.040;73.076;2024-02-21T05:27:10;41.75;32.75;20.50
80555;PMS5003;69889;55.040;73.076;2024-02-21T05:29:37;44.00;33.75;19.50
80555;PMS5003;69889;55.040;73.076;2024-02-21T05:32:03;40.25;32.00;20.50
80555;PMS5003;69889;55.040;73.076;2024-02-21T05:34:30;47.00;36.50;21.25
80555;PMS5003;69889;55.040;73.076;2024-02-21T05:36:56;44.50;33.50;21.00
80555;PMS5003;69889;55.040;73.076;2024-02-21T05:39:23;45.75;34.75;21.25
80555;PMS5003;69889;55.040;73.076;2024-02-21T05:41:50;49.50;38.00;24.00
80555;PMS5003;69889;55.040;73.076;2024-02-21T05:44:17;49.50;37.50;20.50
80555;PMS5003;69889;55.040;73.076;2024-02-21T05:46:43;45.75;35.50;20.50
80555;PMS5003;69889;55.040;73.076;2024-02-21T05:49:10;41.75;34.00;20.25
80555;PMS5003;69889;55.040;73.076;2024-02-21T05:51:36;37.50;30.75;20.25
80555;PMS5003;69889;55.040;73.076;2024-02-21T05:54:03;45.50;36.00;20.50
80555;PMS5003;69889;55.040;73.076;2024-02-21T05:56:29;41.50;33.50;20.50
80555;PMS5003;69889;55.040;73.076;2024-02-21T05:58:55;43.00;34.50;21.00
80555;PMS5003;69889;55.040;73.076;2024-02-21T06:01:22;45.00;34.50;21.50
80555;PMS5003;69889;55.040;73.076;2024-02-21T06:03:49;41.25;32.50;19.25
80555;PMS5003;69889;55.040;73.076;2024-02-21T06:06:15;40.25;31.50;19.00
80555;PMS5003;69889;55.040;73.076;2024-02-21T06:08:42;41.50;34.50;20.50
80555;PMS5003;69889;55.040;73.076;2024-02-21T06:11:08;40.00;32.00;20.50
80555;PMS5003;69889;55.040;73.076;2024-02-21T06:13:38;41.25;32.75;19.50
80555;PMS5003;69889;55.040;73.076;2024-02-21T06:16:04;42.25;34.00;20.75
80555;PMS5003;69889;55.040;73.076;2024-02-21T06:18:31;39.75;31.75;20.75
80555;PMS5003;69889;55.040;73.076;2024-02-21T06:20:57;46.25;36.50;21.50
80555;PMS5003;69889;55.040;73.076;2024-02-21T06:23:24;43.00;33.50;20.50
80555;PMS5003;69889;55.040;73.076;2024-02-21T06:25:50;45.00;35.25;21.25
80555;PMS5003;69889;55.040;73.076;2024-02-21T06:28:17;44.25;35.25;21.50
80555;PMS5003;69889;55.040;73.076;2024-02-21T06:30:43;41.50;33.50;20.75
80555;PMS5003;69889;55.040;73.076;2024-02-21T06:33:09;39.50;31.50;20.25
80555;PMS5003;69889;55.040;73.076;2024-02-21T06:35:36;42.00;32.50;19.75
80555;PMS5003;69889;55.040;73.076;2024-02-21T06:38:03;41.00;32.00;19.75
80555;PMS5003;69889;55.040;73.076;2024-02-21T06:40:30;48.00;36.50;22.75
80555;PMS5003;69889;55.040;73.076;2024-02-21T06:43:04;45.25;34.25;21.00
80555;PMS5003;69889;55.040;73.076;2024-02-21T06:45:30;39.25;31.50;19.25
80555;PMS5003;69889;55.040;73.076;2024-02-21T06:47:57;39.25;32.00;19.00
80555;PMS5003;69889;55.040;73.076;2024-02-21T06:50:24;41.50;32.50;20.25
80555;PMS5003;69889;55.040;73.076;2024-02-21T06:52:50;40.75;32.75;20.00
80555;PMS5003;69889;55.040;73.076;2024-02-21T06:55:16;39.25;31.75;19.00
80555;PMS5003;69889;55.040;73.076;2024-02-21T06:57:43;39.50;32.50;21.00
80555;PMS5003;69889;55.040;73.076;2024-02-21T07:00:09;41.25;32.00;20.25
80555;PMS5003;69889;55.040;73.076;2024-02-21T07:02:36;37.50;31.00;18.50
80555;PMS5003;69889;55.040;73.076;2024-02-21T07:05:03;38.50;31.25;19.50
80555;PMS5003;69889;55.040;73.076;2024-02-21T07:07:29;37.00;30.50;20.00
80555;PMS5003;69889;55.040;73.076;2024-02-21T07:09:56;37.75;29.00;18.00
80555;PMS5003;69889;55.040;73.076;2024-02-21T07:12:22;37.00;30.25;17.50
80555;PMS5003;69889;55.040;73.076;2024-02-21T07:14:48;38.50;29.25;17.75
80555;PMS5003;69889;55.040;73.076;2024-02-21T07:17:26;32.50;27.50;17.50
80555;PMS5003;69889;55.040;73.076;2024-02-21T07:19:52;36.50;29.50;19.75
80555;PMS5003;69889;55.040;73.076;2024-02-21T07:22:22;37.50;28.25;19.25
80555;PMS5003;69889;55.040;73.076;2024-02-21T07:24:49;30.25;25.50;17.00
80555;PMS5003;69889;55.040;73.076;2024-02-21T07:27:15;38.25;30.25;17.00
80555;PMS5003;69889;55.040;73.076;2024-02-21T07:29:42;31.25;25.25;16.00
80555;PMS5003;69889;55.040;73.076;2024-02-21T07:32:08;32.00;26.00;15.75
80555;PMS5003;69889;55.040;73.076;2024-02-21T07:34:35;29.00;24.50;16.50
80555;PMS5003;69889;55.040;73.076;2024-02-21T07:37:21;34.75;26.50;17.00
80555;PMS5003;69889;55.040;73.076;2024-02-21T07:39:47;35.50;26.75;16.75
80555;PMS5003;69889;55.040;73.076;2024-02-21T07:42:14;32.25;26.25;15.50
80555;PMS5003;69889;55.040;73.076;2024-02-21T07:44:41;36.00;27.75;17.50
80555;PMS5003;69889;55.040;73.076;2024-02-21T07:47:08;32.50;26.25;16.25
80555;PMS5003;69889;55.040;73.076;2024-02-21T07:49:40;30.25;25.25;16.00
80555;PMS5003;69889;55.040;73.076;2024-02-21T07:52:07;28.25;23.25;15.25
80555;PMS5003;69889;55.040;73.076;2024-02-21T07:54:33;32.50;26.25;16.00
80555;PMS5003;69889;55.040;73.076;2024-02-21T07:57:00;26.75;22.75;15.50
80555;PMS5003;69889;55.040;73.076;2024-02-21T07:59:26;33.00;26.25;16.50
80555;PMS5003;69889;55.040;73.076;2024-02-21T08:01:55;30.00;25.75;16.00
80555;PMS5003;69889;55.040;73.076;2024-02-21T08:04:22;30.75;24.50;15.25
80555;PMS5003;69889;55.040;73.076;2024-02-21T08:06:54;31.00;25.00;16.00
80555;PMS5003;69889;55.040;73.076;2024-02-21T08:09:27;31.00;25.00;15.00
80555;PMS5003;69889;55.040;73.076;2024-02-21T08:11:56;37.25;29.50;18.00
80555;PMS5003;69889;55.040;73.076;2024-02-21T08:14:23;32.25;25.50;15.75
80555;PMS5003;69889;55.040;73.076;2024-02-21T08:16:51;34.00;27.50;18.00
80555;PMS5003;69889;55.040;73.076;2024-02-21T08:19:19;31.50;25.50;16.25
80555;PMS5003;69889;55.040;73.076;2024-02-21T08:21:45;37.00;28.00;17.75
80555;PMS5003;69889;55.040;73.076;2024-02-21T08:24:15;32.75;25.50;16.75
80555;PMS5003;69889;55.040;73.076;2024-02-21T08:26:41;35.50;27.75;17.00
80555;PMS5003;69889;55.040;73.076;2024-02-21T08:29:08;33.75;27.25;17.50
80555;PMS5003;69889;55.040;73.076;2024-02-21T08:31:34;35.50;27.75;17.00
80555;PMS5003;69889;55.040;73.076;2024-02-21T08:34:01;31.00;26.50;16.75
80555;PMS5003;69889;55.040;73.076;2024-02-21T08:36:31;37.25;29.25;17.50
80555;PMS5003;69889;55.040;73.076;2024-02-21T08:38:58;38.00;29.75;17.75
80555;PMS5003;69889;55.040;73.076;2024-02-21T08:41:25;33.50;27.50;16.50
80555;PMS5003;69889;55.040;73.076;2024-02-21T08:43:52;36.25;28.75;18.00
80555;PMS5003;69889;55.040;73.076;2024-02-21T08:46:20;37.25;30.00;18.75
80555;PMS5003;69889;55.040;73.076;2024-02-21T08:48:53;36.25;30.50;18.00
80555;PMS5003;69889;55.040;73.076;2024-02-21T08:51:20;36.75;29.50;19.00
80555;PMS5003;69889;55.040;73.076;2024-02-21T08:53:47;38.00;30.25;19.75
80555;PMS5003;69889;55.040;73.076;2024-02-21T08:56:14;35.00;28.50;17.75
80555;PMS5003;69889;55.040;73.076;2024-02-21T08:58:41;37.75;29.25;18.75
80555;PMS5003;69889;55.040;73.076;2024-02-21T09:01:13;35.75;29.25;18.25
80555;PMS5003;69889;55.040;73.076;2024-02-21T09:03:41;39.75;32.50;20.50
80555;PMS5003;69889;55.040;73.076;2024-02-21T09:06:07;35.50;29.00;18.25
80555;PMS5003;69889;55.040;73.076;2024-02-21T09:08:34;34.00;28.75;18.00
80555;PMS5003;69889;55.040;73.076;2024-02-21T09:11:00;37.75;30.00;18.75
80555;PMS5003;69889;55.040;73.076;2024-02-21T09:13:29;40.50;32.00;19.75
80555;PMS5003;69889;55.040;73.076;2024-02-21T09:15:56;40.50;32.50;19.75
80555;PMS5003;69889;55.040;73.076;2024-02-21T09:18:23;38.50;31.00;18.50
80555;PMS5003;69889;55.040;73.076;2024-02-21T09:20:49;38.50;31.00;18.75
80555;PMS5003;69889;55.040;73.076;2024-02-21T09:23:16;39.50;31.00;18.50
80555;PMS5003;69889;55.040;73.076;2024-02-21T09:25:42;43.75;34.00;20.50
80555;PMS5003;69889;55.040;73.076;2024-02-21T09:28:09;39.50;30.00;18.50
80555;PMS5003;69889;55.040;73.076;2024-02-21T09:30:37;40.50;31.25;19.50
80555;PMS5003;69889;55.040;73.076;2024-02-21T09:33:04;35.50;28.50;17.75
80555;PMS5003;69889;55.040;73.076;2024-02-21T09:35:31;39.50;30.75;19.50
80555;PMS5003;69889;55.040;73.076;2024-02-21T09:37:59;37.25;30.50;19.25
80555;PMS5003;69889;55.040;73.076;2024-02-21T09:40:26;38.50;31.50;19.00
80555;PMS5003;69889;55.040;73.076;2024-02-21T09:43:01;38.25;30.50;19.00
80555;PMS5003;69889;55.040;73.076;2024-02-21T09:45:39;40.75;33.00;19.75
80555;PMS5003;69889;55.040;73.076;2024-02-21T09:48:19;42.50;33.25;20.50
80555;PMS5003;69889;55.040;73.076;2024-02-21T09:50:52;38.00;29.75;19.50
80555;PMS5003;69889;55.040;73.076;2024-02-21T09:53:19;39.25;31.50;19.00
80555;PMS5003;69889;55.040;73.076;2024-02-21T09:55:47;37.00;30.00;19.50
80555;PMS5003;69889;55.040;73.076;2024-02-21T09:58:14;41.00;31.75;20.25
80555;PMS5003;69889;55.040;73.076;2024-02-21T10:00:41;39.75;31.50;19.75
80555;PMS5003;69889;55.040;73.076;2024-02-21T10:03:07;38.00;30.75;19.00
80555;PMS5003;69889;55.040;73.076;2024-02-21T10:05:35;40.75;31.50;19.25
80555;PMS5003;69889;55.040;73.076;2024-02-21T10:08:02;40.25;32.50;20.25
80555;PMS5003;69889;55.040;73.076;2024-02-21T10:10:42;39.25;31.50;20.75
80555;PMS5003;69889;55.040;73.076;2024-02-21T10:13:09;38.50;31.25;20.25
80555;PMS5003;69889;55.040;73.076;2024-02-21T10:15:36;36.75;29.50;19.25
80555;PMS5003;69889;55.040;73.076;2024-02-21T10:18:02;42.25;32.50;20.25
80555;PMS5003;69889;55.040;73.076;2024-02-21T10:20:32;46.75;36.50;22.50
80555;PMS5003;69889;55.040;73.076;2024-02-21T10:23:03;41.25;33.50;21.50
80555;PMS5003;69889;55.040;73.076;2024-02-21T10:25:35;40.50;32.75;20.50
80555;PMS5003;69889;55.040;73.076;2024-02-21T10:28:02;39.25;32.50;20.50
80555;PMS5003;69889;55.040;73.076;2024-02-21T10:30:29;39.00;30.50;19.75
80555;PMS5003;69889;55.040;73.076;2024-02-21T10:32:55;41.75;31.50;19.75
80555;PMS5003;69889;55.040;73.076;2024-02-21T10:35:30;42.00;33.25;21.25
80555;PMS5003;69889;55.040;73.076;2024-02-21T10:37:56;38.75;30.50;19.25
80555;PMS5003;69889;55.040;73.076;2024-02-21T10:40:24;35.75;28.75;18.75
80555;PMS5003;69889;55.040;73.076;2024-02-21T10:42:52;40.25;31.50;19.00
80555;PMS5003;69889;55.040;73.076;2024-02-21T10:45:22;41.50;34.50;20.75
80555;PMS5003;69889;55.040;73.076;2024-02-21T10:47:51;42.00;31.75;19.50
80555;PMS5003;69889;55.040;73.076;2024-02-21T10:50:21;44.75;34.75;21.50
80555;PMS5003;69889;55.040;73.076;2024-02-21T10:55:32;37.25;29.50;18.50
80555;PMS5003;69889;55.040;73.076;2024-02-21T10:58:00;41.50;32.00;19.50
80555;PMS5003;69889;55.040;73.076;2024-02-21T11:00:27;42.50;32.25;20.75
80555;PMS5003;69889;55.040;73.076;2024-02-21T11:02:56;39.00;31.50;20.50
80555;PMS5003;69889;55.040;73.076;2024-02-21T11:05:24;41.75;33.50;20.00
80555;PMS5003;69889;55.040;73.076;2024-02-21T11:07:50;38.50;30.75;18.75
80555;PMS5003;69889;55.040;73.076;2024-02-21T11:10:22;34.50;28.00;18.00
80555;PMS5003;69889;55.040;73.076;2024-02-21T11:12:52;41.00;31.75;19.75
80555;PMS5003;69889;55.040;73.076;2024-02-21T11:15:18;35.50;29.75;18.50
80555;PMS5003;69889;55.040;73.076;2024-02-21T11:17:57;42.50;34.00;20.50
80555;PMS5003;69889;55.040;73.076;2024-02-21T11:20:33;42.00;32.25;20.00
80555;PMS5003;69889;55.040;73.076;2024-02-21T11:23:03;37.50;30.25;19.50
80555;PMS5003;69889;55.040;73.076;2024-02-21T11:25:29;40.75;32.00;20.50
80555;PMS5003;69889;55.040;73.076;2024-02-21T11:28:02;37.75;29.75;19.00
80555;PMS5003;69889;55.040;73.076;2024-02-21T11:30:32;37.50;30.00;18.50
80555;PMS5003;69889;55.040;73.076;2024-02-21T11:33:02;43.50;34.50;21.75
80555;PMS5003;69889;55.040;73.076;2024-02-21T11:35:32;47.00;36.50;21.00
80555;PMS5003;69889;55.040;73.076;2024-02-21T11:38:09;45.50;36.00;22.00
80555;PMS5003;69889;55.040;73.076;2024-02-21T11:40:38;45.50;35.50;23.00
80555;PMS5003;69889;55.040;73.076;2024-02-21T11:43:06;43.50;35.25;21.50
80555;PMS5003;69889;55.040;73.076;2024-02-21T11:45:33;38.50;31.50;20.75
80555;PMS5003;69889;55.040;73.076;2024-02-21T11:47:59;43.50;34.50;22.25
80555;PMS5003;69889;55.040;73.076;2024-02-21T11:50:29;46.25;35.00;22.00
80555;PMS5003;69889;55.040;73.076;2024-02-21T11:52:57;41.75;32.50;21.75
80555;PMS5003;69889;55.040;73.076;2024-02-21T11:55:23;41.50;33.50;21.00
80555;PMS5003;69889;55.040;73.076;2024-02-21T11:57:50;44.75;34.25;22.00
80555;PMS5003;69889;55.040;73.076;2024-02-21T12:00:17;40.50;32.50;20.50
80555;PMS5003;69889;55.040;73.076;2024-02-21T12:02:46;44.00;36.00;22.00
80555;PMS5003;69889;55.040;73.076;2024-02-21T12:05:13;43.00;34.50;21.50
80555;PMS5003;69889;55.040;73.076;2024-02-21T12:07:59;38.50;31.25;20.00
80555;PMS5003;69889;55.040;73.076;2024-02-21T12:10:26;40.00;31.50;18.75
80555;PMS5003;69889;55.040;73.076;2024-02-21T12:13:08;35.50;29.75;19.50
80555;PMS5003;69889;55.040;73.076;2024-02-21T12:15:35;35.50;29.25;19.00
80555;PMS5003;69889;55.040;73.076;2024-02-21T12:18:01;40.75;32.50;19.50
80555;PMS5003;69889;55.040;73.076;2024-02-21T12:20:30;39.25;31.75;19.00
80555;PMS5003;69889;55.040;73.076;2024-02-21T12:22:59;37.00;29.75;19.25
80555;PMS5003;69889;55.040;73.076;2024-02-21T12:25:46;40.50;30.75;19.25
80555;PMS5003;69889;55.040;73.076;2024-02-21T12:28:12;40.75;33.00;19.25
80555;PMS5003;69889;55.040;73.076;2024-02-21T12:30:39;39.00;31.50;19.50
80555;PMS5003;69889;55.040;73.076;2024-02-21T12:33:06;39.00;30.75;20.00
80555;PMS5003;69889;55.040;73.076;2024-02-21T12:35:32;42.50;34.25;21.00
80555;PMS5003;69889;55.040;73.076;2024-02-21T12:37:59;38.75;31.50;19.25
80555;PMS5003;69889;55.040;73.076;2024-02-21T12:40:26;38.50;30.50;20.00
80555;PMS5003;69889;55.040;73.076;2024-02-21T12:42:59;38.50;29.75;19.75
80555;PMS5003;69889;55.040;73.076;2024-02-21T12:45:26;37.50;30.00;18.00
80555;PMS5003;69889;55.040;73.076;2024-02-21T12:47:52;34.25;28.00;17.00
80555;PMS5003;69889;55.040;73.076;2024-02-21T12:50:19;36.50;28.25;16.25
80555;PMS5003;69889;55.040;73.076;2024-02-21T12:53:02;36.25;28.50;18.00
80555;PMS5003;69889;55.040;73.076;2024-02-21T12:55:29;44.25;34.50;20.00
80555;PMS5003;69889;55.040;73.076;2024-02-21T12:57:56;45.00;34.00;20.25
80555;PMS5003;69889;55.040;73.076;2024-02-21T13:00:23;46.75;36.50;21.50
80555;PMS5003;69889;55.040;73.076;2024-02-21T13:02:53;47.00;35.75;21.50
80555;PMS5003;69889;55.040;73.076;2024-02-21T13:05:20;49.50;38.50;23.25
80555;PMS5003;69889;55.040;73.076;2024-02-21T13:07:46;51.75;39.50;24.25
80555;PMS5003;69889;55.040;73.076;2024-02-21T13:10:14;53.00;41.00;24.75
80555;PMS5003;69889;55.040;73.076;2024-02-21T13:12:41;54.75;41.50;25.75
80555;PMS5003;69889;55.040;73.076;2024-02-21T13:15:08;53.75;42.25;24.00
80555;PMS5003;69889;55.040;73.076;2024-02-21T13:17:37;56.75;44.00;27.50
80555;PMS5003;69889;55.040;73.076;2024-02-21T13:20:04;60.50;47.00;28.25
80555;PMS5003;69889;55.040;73.076;2024-02-21T13:22:32;59.75;45.25;26.50
80555;PMS5003;69889;55.040;73.076;2024-02-21T13:25:00;59.50;47.25;28.25
80555;PMS5003;69889;55.040;73.076;2024-02-21T13:27:27;57.00;44.50;26.50
80555;PMS5003;69889;55.040;73.076;2024-02-21T13:29:54;68.00;49.75;30.50
80555;PMS5003;69889;55.040;73.076;2024-02-21T13:32:21;62.00;46.50;27.50
80555;PMS5003;69889;55.040;73.076;2024-02-21T13:34:47;58.75;44.50;27.75
80555;PMS5003;69889;55.040;73.076;2024-02-21T13:37:14;63.00;48.50;29.50
80555;PMS5003;69889;55.040;73.076;2024-02-21T13:39:41;60.00;46.50;27.50
80555;PMS5003;69889;55.040;73.076;2024-02-21T13:42:07;58.50;45.50;27.25